Time;durP1;ratioP1;P1;durP2;ratioP2;P2;SDS_P1;SDS_P2;PMS_P1;PMS_P2;Temp;Humidity;BMP_temperature;BMP_pressure;BME280_temperature;BME280_humidity;BME280_pressure;Samples;Min_cycle;Max_cycle;Signal;HPM_P1;HPM_P2
2022/09/27 00:01:22;;;;;;;8.10;7.32;;;;;;;;;;5023740;28;20057;-91
2022/09/27 00:03:48;;;;;;;8.57;7.75;;;;;;;;;;5023083;28;20045;-91
2022/09/27 00:06:23;;;;;;;6.85;6.22;;;;;;;;;;5024977;28;20042;-90
2022/09/27 00:08:50;;;;;;;7.05;5.97;;;;;;;;;;5024412;28;20050;-90
2022/09/27 00:11:23;;;;;;;8.32;7.53;;;;;;;;;;5023733;28;20101;-90
2022/09/27 00:13:50;;;;;;;8.90;7.35;;;;;;;;;;5023942;28;20105;-89
2022/09/27 00:16:16;;;;;;;8.52;7.03;;;;;;;;;;5022250;28;20042;-90
2022/09/27 00:18:43;;;;;;;7.80;6.38;;;;;;;;;;5022817;28;20061;-90
2022/09/27 00:21:10;;;;;;;8.63;6.22;;;;;;;;;;5022554;28;20046;-89
2022/09/27 00:23:37;;;;;;;7.15;6.45;;;;;;;;;;5022074;28;20050;-90
2022/09/27 00:26:04;;;;;;;6.90;6.28;;;;;;;;;;5023382;28;20038;-90
2022/09/27 00:28:32;;;;;;;6.57;5.93;;;;;;;;;;5023989;28;20057;-90
2022/09/27 00:30:59;;;;;;;8.07;7.10;;;;;;;;;;5023734;28;20057;-90
2022/09/27 00:33:26;;;;;;;8.57;7.60;;;;;;;;;;5023764;28;20050;-90
2022/09/27 00:35:52;;;;;;;8.55;6.85;;;;;;;;;;5022899;28;20042;-90
2022/09/27 00:38:19;;;;;;;8.00;6.78;;;;;;;;;;5023587;28;20053;-90
2022/09/27 00:40:45;;;;;;;10.10;5.90;;;;;;;;;;5023054;28;20458;-90
2022/09/27 00:43:16;;;;;;;7.82;7.13;;;;;;;;;;5022603;28;20050;-91
2022/09/27 00:45:47;;;;;;;6.35;5.68;;;;;;;;;;5023564;28;20046;-90
2022/09/27 00:48:15;;;;;;;7.32;6.53;;;;;;;;;;5023954;28;20046;-90
2022/09/27 00:50:43;;;;;;;8.23;7.05;;;;;;;;;;5023818;28;20042;-90
2022/09/27 00:53:12;;;;;;;6.88;6.03;;;;;;;;;;5023710;28;20046;-90
2022/09/27 00:55:40;;;;;;;7.45;6.72;;;;;;;;;;5022231;28;20046;-90
2022/09/27 00:58:07;;;;;;;7.03;5.85;;;;;;;;;;5021726;28;20053;-90
2022/09/27 01:00:33;;;;;;;5.82;5.00;;;;;;;;;;5021508;28;20421;-90
2022/09/27 01:03:06;;;;;;;6.85;5.80;;;;;;;;;;5020986;28;20081;-90
2022/09/27 01:05:32;;;;;;;7.80;5.10;;;;;;;;;;5022828;28;20046;-90
2022/09/27 01:07:59;;;;;;;6.75;5.50;;;;;;;;;;5023469;28;20042;-89
2022/09/27 01:10:28;;;;;;;7.97;5.43;;;;;;;;;;5022238;28;20162;-89
2022/09/27 01:12:59;;;;;;;8.00;6.70;;;;;;;;;;5021323;28;20141;-90
2022/09/27 01:15:28;;;;;;;8.60;5.85;;;;;;;;;;5023027;28;20042;-90
2022/09/27 01:18:02;;;;;;;6.35;5.07;;;;;;;;;;5022783;28;20050;-90
2022/09/27 01:20:37;;;;;;;7.13;5.85;;;;;;;;;;5022530;28;20053;-90
2022/09/27 01:23:22;;;;;;;7.43;6.65;;;;;;;;;;5022114;28;20049;-90
2022/09/27 01:25:54;;;;;;;8.25;7.03;;;;;;;;;;5022093;28;20055;-90
2022/09/27 01:28:25;;;;;;;7.15;6.07;;;;;;;;;;5022248;28;20052;-91
2022/09/27 01:31:00;;;;;;;6.45;5.63;;;;;;;;;;5022538;28;20077;-90
2022/09/27 01:33:33;;;;;;;6.95;5.55;;;;;;;;;;5022960;28;20053;-90
2022/09/27 01:36:15;;;;;;;6.97;5.82;;;;;;;;;;5022487;28;20544;-90
2022/09/27 01:38:45;;;;;;;5.88;5.25;;;;;;;;;;5022978;28;20053;-90
2022/09/27 01:41:16;;;;;;;8.00;6.07;;;;;;;;;;5021913;28;20050;-90
2022/09/27 01:43:44;;;;;;;6.88;5.53;;;;;;;;;;5021779;28;20077;-91
2022/09/27 01:46:15;;;;;;;7.13;5.78;;;;;;;;;;5022013;28;20064;-90
2022/09/27 01:48:43;;;;;;;5.97;5.35;;;;;;;;;;5022983;28;20056;-91
2022/09/27 01:51:12;;;;;;;6.57;5.40;;;;;;;;;;5021690;28;20418;-91
2022/09/27 01:53:40;;;;;;;8.93;5.78;;;;;;;;;;5022725;28;20060;-90
2022/09/27 01:56:08;;;;;;;6.30;5.65;;;;;;;;;;5021769;28;20053;-91
2022/09/27 01:58:41;;;;;;;8.57;6.43;;;;;;;;;;5021316;28;20046;-90
2022/09/27 02:01:08;;;;;;;8.15;6.22;;;;;;;;;;5022298;28;20050;-90
2022/09/27 02:03:37;;;;;;;6.47;5.63;;;;;;;;;;5022680;28;20049;-90
2022/09/27 02:06:07;;;;;;;6.22;5.63;;;;;;;;;;5022077;28;20046;-90
2022/09/27 02:08:35;;;;;;;;;;;;;;;;;;5022989;28;20042;-91
2022/09/27 02:11:03;;;;;;;7.22;5.03;;;;;;;;;;5021399;28;19936;-91
2022/09/27 02:13:33;;;;;;;6.88;5.70;;;;;;;;;;5022920;28;20056;-91
2022/09/27 02:16:05;;;;;;;6.28;5.68;;;;;;;;;;5020844;28;20505;-90
2022/09/27 02:18:33;;;;;;;6.88;6.05;;;;;;;;;;5020939;28;20069;-90
2022/09/27 02:21:04;;;;;;;8.55;6.28;;;;;;;;;;5021597;28;20069;-90
2022/09/27 02:23:30;;;;;;;;;;;;;;;;;;5021422;28;20042;-90
2022/09/27 02:25:57;;;;;;;7.25;5.30;;;;;;;;;;5020725;28;19979;-90
2022/09/27 02:28:27;;;;;;;7.53;5.78;;;;;;;;;;5020983;28;20057;-90
2022/09/27 02:30:54;;;;;;;6.30;5.63;;;;;;;;;;5021093;28;20057;-89
2022/09/27 02:33:23;;;;;;;6.45;5.53;;;;;;;;;;5021293;28;20058;-91
2022/09/27 02:35:49;;;;;;;7.53;6.40;;;;;;;;;;5020615;28;20049;-90
2022/09/27 02:38:18;;;;;;;7.40;6.20;;;;;;;;;;5020847;28;20112;-91
2022/09/27 02:40:45;;;;;;;7.55;6.75;;;;;;;;;;5021115;28;20122;-90
2022/09/27 02:43:13;;;;;;;6.63;6.00;;;;;;;;;;5022160;28;20057;-91
2022/09/27 02:45:48;;;;;;;9.60;6.28;;;;;;;;;;5021801;28;20050;-90
2022/09/27 02:48:19;;;;;;;6.20;5.60;;;;;;;;;;5022047;28;20177;-91
2022/09/27 02:51:07;;;;;;;6.93;6.22;;;;;;;;;;5021420;28;20053;-90
2022/09/27 02:53:39;;;;;;;6.72;6.03;;;;;;;;;;5021869;28;20053;-90
2022/09/27 02:56:10;;;;;;;7.65;5.78;;;;;;;;;;5021342;28;20046;-90
2022/09/27 02:58:36;;;;;;;;;;;;;;;;;;5024336;28;20054;-91
2022/09/27 03:01:06;;;;;;;10.18;6.80;;;;;;;;;;5025581;28;19928;-91
2022/09/27 03:03:36;;;;;;;5.88;5.22;;;;;;;;;;5025251;28;20053;-90
2022/09/27 03:06:04;;;;;;;7.43;6.72;;;;;;;;;;5025303;28;20057;-91
2022/09/27 03:08:31;;;;;;;8.50;7.70;;;;;;;;;;5025333;28;20893;-90
2022/09/27 03:10:59;;;;;;;8.25;7.18;;;;;;;;;;5024826;28;20046;-91
2022/09/27 03:13:26;;;;;;;7.03;6.10;;;;;;;;;;5024408;28;20053;-90
2022/09/27 03:15:52;;;;;;;8.00;7.20;;;;;;;;;;5025455;28;20061;-91
2022/09/27 03:18:19;;;;;;;8.82;7.97;;;;;;;;;;5025603;28;20532;-90
2022/09/27 03:20:45;;;;;;;6.90;5.68;;;;;;;;;;5025102;28;20046;-90
2022/09/27 03:23:12;;;;;;;8.27;7.15;;;;;;;;;;5025382;28;20050;-90
2022/09/27 03:25:39;;;;;;;7.60;6.38;;;;;;;;;;5025140;28;20695;-91
2022/09/27 03:28:08;;;;;;;8.40;6.38;;;;;;;;;;5025117;28;20049;-90
2022/09/27 03:30:34;;;;;;;7.07;6.13;;;;;;;;;;5015279;28;20049;-90
2022/09/27 03:33:01;;;;;;;7.70;6.90;;;;;;;;;;5021962;28;20050;-90
2022/09/27 03:35:27;;;;;;;7.75;6.80;;;;;;;;;;5024722;28;20054;-90
2022/09/27 03:37:54;;;;;;;6.50;5.82;;;;;;;;;;5024108;28;20049;-91
2022/09/27 03:40:20;;;;;;;9.00;7.65;;;;;;;;;;5023138;28;20046;-90
2022/09/27 03:42:48;;;;;;;10.85;9.35;;;;;;;;;;5005662;28;20043;-91
2022/09/27 03:45:16;;;;;;;9.55;8.55;;;;;;;;;;5004781;28;20046;-90
2022/09/27 03:47:43;;;;;;;9.27;7.38;;;;;;;;;;5017958;28;20060;-90
2022/09/27 03:50:10;;;;;;;8.63;7.50;;;;;;;;;;5024212;28;20554;-91
2022/09/27 03:52:37;;;;;;;8.20;7.40;;;;;;;;;;5024949;28;20045;-90
2022/09/27 03:55:04;;;;;;;8.15;6.53;;;;;;;;;;5024544;28;20061;-90
2022/09/27 03:57:31;;;;;;;7.28;6.15;;;;;;;;;;5024011;28;20046;-91
2022/09/27 03:59:58;;;;;;;9.45;7.07;;;;;;;;;;5024461;28;20042;-91
2022/09/27 04:02:26;;;;;;;9.10;8.20;;;;;;;;;;5024232;28;20493;-90
2022/09/27 04:04:53;;;;;;;8.85;6.55;;;;;;;;;;5024731;28;20226;-90
2022/09/27 04:07:19;;;;;;;7.45;6.60;;;;;;;;;;5024228;28;20426;-90
2022/09/27 04:09:46;;;;;;;7.97;7.18;;;;;;;;;;5023956;28;20109;-90
2022/09/27 04:12:13;;;;;;;8.40;6.45;;;;;;;;;;5024068;28;20054;-90
2022/09/27 04:14:39;;;;;;;7.68;6.88;;;;;;;;;;5024478;28;20770;-90
2022/09/27 04:17:06;;;;;;;6.35;5.45;;;;;;;;;;5024414;28;20046;-90
2022/09/27 04:19:35;;;;;;;6.78;6.07;;;;;;;;;;5024166;28;20053;-90
2022/09/27 04:22:02;;;;;;;8.13;6.25;;;;;;;;;;5023276;28;20050;-90
2022/09/27 04:24:28;;;;;;;7.22;5.38;;;;;;;;;;5023698;28;20049;-90
2022/09/27 04:26:55;;;;;;;5.68;4.85;;;;;;;;;;5023783;28;20088;-90
2022/09/27 04:29:22;;;;;;;4.60;3.80;;;;;;;;;;5024019;28;20061;-90
2022/09/27 04:31:48;;;;;;;6.85;6.25;;;;;;;;;;5013277;28;20058;-90
2022/09/27 04:34:15;;;;;;;5.70;4.82;;;;;;;;;;5004656;28;20050;-91
2022/09/27 04:36:42;;;;;;;6.05;5.45;;;;;;;;;;5002847;28;20050;-91
2022/09/27 04:39:09;;;;;;;5.40;4.78;;;;;;;;;;5009250;28;20081;-91
2022/09/27 04:41:36;;;;;;;10.75;6.57;;;;;;;;;;5023842;28;20038;-91
2022/09/27 04:44:03;;;;;;;6.43;5.18;;;;;;;;;;5023424;28;20050;-91
2022/09/27 04:46:30;;;;;;;5.50;4.40;;;;;;;;;;5023691;28;20057;-91
2022/09/27 04:48:57;;;;;;;6.18;5.57;;;;;;;;;;5023871;28;20050;-92
2022/09/27 04:51:24;;;;;;;5.90;4.97;;;;;;;;;;5023477;28;20045;-91
2022/09/27 04:53:51;;;;;;;7.03;6.10;;;;;;;;;;5023148;28;20046;-91
2022/09/27 04:56:18;;;;;;;6.55;5.95;;;;;;;;;;5019677;28;20552;-91
2022/09/27 04:58:44;;;;;;;8.55;6.40;;;;;;;;;;5018372;28;20053;-91
2022/09/27 05:01:11;;;;;;;6.97;4.93;;;;;;;;;;5021670;28;20049;-92
2022/09/27 05:03:38;;;;;;;5.70;4.90;;;;;;;;;;5018308;28;20128;-90
2022/09/27 05:06:05;;;;;;;5.15;4.65;;;;;;;;;;5016679;28;20046;-90
2022/09/27 05:08:31;;;;;;;5.78;5.18;;;;;;;;;;5022708;28;20049;-90
2022/09/27 05:11:00;;;;;;;5.72;4.57;;;;;;;;;;5022546;28;20065;-91
2022/09/27 05:13:26;;;;;;;6.80;5.43;;;;;;;;;;5021951;28;20054;-90
2022/09/27 05:15:53;;;;;;;7.20;6.50;;;;;;;;;;5021936;28;20050;-90
2022/09/27 05:18:19;;;;;;;6.90;6.30;;;;;;;;;;5021920;28;20053;-90
2022/09/27 05:20:46;;;;;;;6.90;6.30;;;;;;;;;;5018801;28;20042;-91
2022/09/27 05:23:12;;;;;;;8.43;5.63;;;;;;;;;;5016117;28;20049;-90
2022/09/27 05:25:39;;;;;;;5.70;4.28;;;;;;;;;;5022359;28;20053;-90
2022/09/27 05:28:08;;;;;;;4.90;4.45;;;;;;;;;;5004813;28;20050;-91
2022/09/27 05:30:35;;;;;;;6.03;5.50;;;;;;;;;;5019379;28;20073;-90
2022/09/27 05:33:01;;;;;;;5.47;4.97;;;;;;;;;;5005102;28;20074;-90
2022/09/27 05:35:28;;;;;;;6.50;5.90;;;;;;;;;;5002768;28;20046;-90
2022/09/27 05:37:55;;;;;;;9.27;5.55;;;;;;;;;;5002062;28;20065;-90
2022/09/27 05:40:23;;;;;;;6.30;5.65;;;;;;;;;;5001512;28;20050;-91
2022/09/27 05:42:50;;;;;;;6.03;5.43;;;;;;;;;;5000332;28;20058;-91
2022/09/27 05:45:18;;;;;;;7.20;4.82;;;;;;;;;;5001467;28;20050;-91
2022/09/27 05:47:52;;;;;;;6.97;5.13;;;;;;;;;;5015718;28;20057;-91
2022/09/27 05:50:18;;;;;;;5.80;4.95;;;;;;;;;;5021368;28;20060;-91
2022/09/27 05:52:45;;;;;;;5.72;4.50;;;;;;;;;;5020486;28;20061;-91
2022/09/27 05:55:11;;;;;;;6.65;5.18;;;;;;;;;;5016344;28;20585;-91
2022/09/27 05:57:38;;;;;;;6.10;5.25;;;;;;;;;;5001489;28;20061;-91
2022/09/27 06:00:05;;;;;;;7.65;4.93;;;;;;;;;;5000488;28;20057;-90
2022/09/27 06:02:34;;;;;;;5.47;4.97;;;;;;;;;;5000506;28;20065;-91
2022/09/27 06:05:02;;;;;;;6.28;5.68;;;;;;;;;;5018550;28;20074;-91
2022/09/27 06:07:30;;;;;;;5.25;4.47;;;;;;;;;;5020230;28;20046;-91
2022/09/27 06:09:57;;;;;;;7.05;6.30;;;;;;;;;;5021020;28;20092;-91
2022/09/27 06:12:23;;;;;;;9.70;5.57;;;;;;;;;;5021159;28;20056;-91
2022/09/27 06:14:50;;;;;;;6.32;5.53;;;;;;;;;;5021606;28;20046;-91
2022/09/27 06:17:16;;;;;;;6.82;6.20;;;;;;;;;;5019973;28;20053;-91
2022/09/27 06:19:46;;;;;;;7.30;5.32;;;;;;;;;;5020016;28;20052;-91
2022/09/27 06:22:13;;;;;;;7.05;6.40;;;;;;;;;;5021183;28;20113;-91
2022/09/27 06:24:39;;;;;;;7.00;6.03;;;;;;;;;;5021431;28;20053;-91
2022/09/27 06:27:06;;;;;;;8.50;6.55;;;;;;;;;;5021488;28;20053;-91
2022/09/27 06:29:34;;;;;;;7.63;6.68;;;;;;;;;;5015879;28;20066;-91
2022/09/27 06:32:01;;;;;;;9.43;7.15;;;;;;;;;;5000150;28;20042;-89
2022/09/27 06:34:27;;;;;;;7.05;6.25;;;;;;;;;;4996555;28;20046;-89
2022/09/27 06:36:56;;;;;;;8.60;6.13;;;;;;;;;;5009250;28;20050;-89
2022/09/27 06:39:22;;;;;;;8.68;7.75;;;;;;;;;;4997493;28;20046;-89
2022/09/27 06:41:49;;;;;;;10.80;7.93;;;;;;;;;;5000541;28;20049;-89
2022/09/27 06:44:15;;;;;;;10.45;7.15;;;;;;;;;;5016558;28;20470;-88
2022/09/27 06:46:42;;;;;;;10.57;8.13;;;;;;;;;;5014086;28;20042;-90
2022/09/27 06:49:09;;;;;;;8.55;7.63;;;;;;;;;;5015718;28;20049;-90
2022/09/27 06:51:35;;;;;;;10.00;7.18;;;;;;;;;;5017732;28;20052;-90
2022/09/27 06:54:03;;;;;;;10.07;8.18;;;;;;;;;;5020169;28;20050;-90
2022/09/27 06:56:30;;;;;;;9.70;8.77;;;;;;;;;;5018384;28;20048;-89
2022/09/27 07:01:40;;;;;;;11.88;10.07;;;;;;;;;;5016203;28;20085;-89
2022/09/27 07:04:08;;;;;;;9.82;8.82;;;;;;;;;;5011569;28;20052;-90
2022/09/27 07:06:36;;;;;;;11.65;10.48;;;;;;;;;;5010083;28;20485;-90
2022/09/27 07:09:05;;;;;;;11.85;9.60;;;;;;;;;;5010045;28;20046;-90
2022/09/27 07:11:35;;;;;;;11.35;10.18;;;;;;;;;;5010436;28;20050;-89
2022/09/27 07:14:02;;;;;;;11.38;10.20;;;;;;;;;;4988293;28;20136;-90
2022/09/27 07:16:28;;;;;;;11.77;10.18;;;;;;;;;;4990956;28;20039;-90
2022/09/27 07:18:55;;;;;;;11.77;10.57;;;;;;;;;;5011416;28;20046;-90
2022/09/27 07:21:21;;;;;;;10.80;9.77;;;;;;;;;;5012882;28;20057;-90
2022/09/27 07:23:48;;;;;;;11.32;9.45;;;;;;;;;;5011363;28;20426;-89
2022/09/27 07:26:16;;;;;;;12.57;9.48;;;;;;;;;;5011986;28;20053;-89
2022/09/27 07:28:43;;;;;;;10.93;8.85;;;;;;;;;;5011942;28;20065;-90
2022/09/27 07:31:10;;;;;;;10.25;8.70;;;;;;;;;;5012144;28;20563;-89
2022/09/27 07:33:38;;;;;;;11.77;10.10;;;;;;;;;;5011421;28;20042;-90
2022/09/27 07:36:08;;;;;;;8.13;7.30;;;;;;;;;;5011584;28;20477;-91
2022/09/27 07:38:35;;;;;;;8.85;7.95;;;;;;;;;;5010452;28;20049;-91
2022/09/27 07:41:05;;;;;;;10.60;9.57;;;;;;;;;;5018859;28;20045;-90
2022/09/27 07:43:33;;;;;;;8.30;7.00;;;;;;;;;;5016204;28;20478;-91
2022/09/27 07:45:59;;;;;;;10.63;9.55;;;;;;;;;;5016492;28;20053;-91
2022/09/27 07:48:27;;;;;;;11.25;10.13;;;;;;;;;;5017733;28;20049;-91
2022/09/27 07:50:53;;;;;;;8.88;8.02;;;;;;;;;;5023961;28;20045;-90
2022/09/27 07:53:20;;;;;;;8.95;7.97;;;;;;;;;;5024181;28;20053;-90
2022/09/27 07:55:49;;;;;;;10.57;9.48;;;;;;;;;;5022500;28;20053;-90
2022/09/27 07:58:16;;;;;;;12.57;9.90;;;;;;;;;;5019644;28;20045;-89
2022/09/27 08:00:44;;;;;;;13.35;10.75;;;;;;;;;;5019934;28;20422;-91
2022/09/27 08:03:13;;;;;;;15.68;10.10;;;;;;;;;;5019945;28;20038;-90
2022/09/27 08:05:39;;;;;;;11.73;10.02;;;;;;;;;;5018009;28;20038;-90
2022/09/27 08:08:06;;;;;;;10.35;8.43;;;;;;;;;;5016517;28;20049;-90
2022/09/27 08:10:33;;;;;;;7.65;6.95;;;;;;;;;;5019258;28;20050;-90
2022/09/27 08:13:02;;;;;;;10.25;8.55;;;;;;;;;;5020853;28;20054;-90
2022/09/27 08:15:28;;;;;;;9.13;8.23;;;;;;;;;;5019768;28;20060;-90
2022/09/27 08:17:56;;;;;;;8.38;6.60;;;;;;;;;;5016924;28;20042;-89
2022/09/27 08:20:23;;;;;;;7.07;6.30;;;;;;;;;;5017871;28;20093;-89
2022/09/27 08:22:49;;;;;;;6.22;5.70;;;;;;;;;;5017531;28;20050;-88
2022/09/27 08:25:16;;;;;;;7.22;6.55;;;;;;;;;;5019920;28;20049;-88
2022/09/27 08:27:43;;;;;;;7.25;6.63;;;;;;;;;;5017416;28;20042;-89
2022/09/27 08:30:10;;;;;;;6.63;6.03;;;;;;;;;;5005804;28;20053;-89
2022/09/27 08:32:37;;;;;;;7.50;6.82;;;;;;;;;;5000394;28;20046;-89
2022/09/27 08:35:06;;;;;;;8.80;6.35;;;;;;;;;;5016158;28;20054;-90
2022/09/27 08:37:32;;;;;;;5.78;5.28;;;;;;;;;;5016075;28;20073;-91
2022/09/27 08:39:59;;;;;;;6.57;5.35;;;;;;;;;;5017866;28;20050;-90
2022/09/27 08:42:32;;;;;;;7.03;6.43;;;;;;;;;;5012912;28;20061;-91
2022/09/27 08:45:01;;;;;;;4.88;4.43;;;;;;;;;;4993785;28;20469;-91
2022/09/27 08:47:30;;;;;;;6.22;5.70;;;;;;;;;;4999565;28;20050;-91
2022/09/27 08:49:59;;;;;;;6.93;4.82;;;;;;;;;;5017804;28;20050;-91
2022/09/27 08:52:31;;;;;;;4.55;3.63;;;;;;;;;;5019934;28;20057;-91
2022/09/27 08:55:01;;;;;;;6.25;5.05;;;;;;;;;;5022590;28;20049;-91
2022/09/27 08:57:27;;;;;;;7.18;6.22;;;;;;;;;;5021261;28;20508;-91
2022/09/27 08:59:57;;;;;;;6.75;5.95;;;;;;;;;;5021226;28;20061;-91
2022/09/27 09:02:25;;;;;;;4.97;4.47;;;;;;;;;;5019700;28;20042;-92
2022/09/27 09:04:53;;;;;;;6.88;6.32;;;;;;;;;;5020026;28;20058;-91
2022/09/27 09:07:26;;;;;;;5.78;5.00;;;;;;;;;;5019374;28;20382;-91
2022/09/27 09:09:59;;;;;;;6.40;4.57;;;;;;;;;;5022975;28;20049;-92
2022/09/27 09:12:49;;;;;;;5.20;4.30;;;;;;;;;;5020304;28;20521;-92
2022/09/27 09:15:17;;;;;;;4.22;3.78;;;;;;;;;;5021156;28;20084;-91
2022/09/27 09:17:52;;;;;;;7.22;6.57;;;;;;;;;;5021952;28;20050;-91
2022/09/27 09:20:32;;;;;;;7.05;6.45;;;;;;;;;;5015801;28;20511;-91
2022/09/27 09:23:05;;;;;;;5.97;5.45;;;;;;;;;;5017308;28;20046;-92
2022/09/27 09:25:36;;;;;;;6.20;4.57;;;;;;;;;;5016759;28;20480;-92
2022/09/27 09:28:07;;;;;;;5.53;4.70;;;;;;;;;;5017687;28;20038;-93
2022/09/27 09:30:37;;;;;;;8.02;6.05;;;;;;;;;;5004817;28;20046;-92
2022/09/27 09:33:12;;;;;;;5.13;4.25;;;;;;;;;;4998824;28;20050;-93
2022/09/27 09:35:41;;;;;;;7.03;6.32;;;;;;;;;;4999431;28;20046;-92
2022/09/27 09:38:11;;;;;;;6.70;6.07;;;;;;;;;;4998879;28;20073;-92
2022/09/27 09:40:37;;;;;;;;;;;;;;;;;;5012075;28;20058;-92
2022/09/27 09:43:13;;;;;;;5.65;5.05;;;;;;;;;;5020746;28;19921;-92
2022/09/27 09:45:41;;;;;;;6.15;5.63;;;;;;;;;;5016339;28;20050;-92
2022/09/27 09:48:14;;;;;;;7.00;6.10;;;;;;;;;;5017161;28;20048;-93
2022/09/27 09:50:44;;;;;;;8.15;7.38;;;;;;;;;;5016651;28;20200;-92
2022/09/27 09:53:13;;;;;;;4.88;4.35;;;;;;;;;;5013966;28;20053;-92
2022/09/27 09:55:41;;;;;;;5.65;5.25;;;;;;;;;;5010834;28;20037;-92
2022/09/27 09:58:17;;;;;;;6.50;5.45;;;;;;;;;;5010417;28;20045;-93
2022/09/27 10:00:44;;;;;;;10.43;5.80;;;;;;;;;;4997559;28;20046;-93
2022/09/27 10:03:10;;;;;;;5.30;4.88;;;;;;;;;;4999703;28;20038;-92
2022/09/27 10:05:37;;;;;;;7.72;6.35;;;;;;;;;;5005611;28;20062;-92
2022/09/27 10:08:05;;;;;;;6.45;5.95;;;;;;;;;;5007235;28;20042;-93
2022/09/27 10:10:32;;;;;;;5.05;4.53;;;;;;;;;;5009657;28;20050;-94
2022/09/27 10:12:58;;;;;;;4.90;4.40;;;;;;;;;;5010605;28;20049;-92
2022/09/27 10:15:28;;;;;;;7.85;5.97;;;;;;;;;;5016410;28;20042;-93
2022/09/27 10:17:57;;;;;;;5.82;5.25;;;;;;;;;;5013070;28;20054;-92
2022/09/27 10:20:31;;;;;;;5.68;4.80;;;;;;;;;;5007298;28;20046;-93
2022/09/27 10:23:00;;;;;;;4.43;4.00;;;;;;;;;;5008109;28;20041;-93
2022/09/27 10:25:44;;;;;;;5.07;4.57;;;;;;;;;;5014406;28;20670;-92
2022/09/27 10:28:25;;;;;;;5.00;4.60;;;;;;;;;;5009624;28;20042;-94
2022/09/27 10:30:57;;;;;;;4.53;4.10;;;;;;;;;;5011589;28;20106;-93
2022/09/27 10:33:23;;;;;;;4.72;4.32;;;;;;;;;;5013187;28;20498;-95
2022/09/27 10:35:50;;;;;;;4.72;4.18;;;;;;;;;;5003763;28;20049;-96
2022/09/27 10:38:21;;;;;;;5.63;4.82;;;;;;;;;;5009968;28;20053;-95
2022/09/27 10:40:48;;;;;;;5.18;4.78;;;;;;;;;;5019252;28;20053;-96
2022/09/27 10:43:25;;;;;;;6.22;4.35;;;;;;;;;;5011944;28;20046;-96
2022/09/27 10:45:59;;;;;;;4.45;4.05;;;;;;;;;;5005403;28;20050;-95
2022/09/27 10:48:25;;;;;;;4.25;3.95;;;;;;;;;;5007124;28;20046;-94
2022/09/27 10:50:57;;;;;;;3.72;3.22;;;;;;;;;;5020759;28;20145;-95
2022/09/27 10:53:24;;;;;;;5.03;4.47;;;;;;;;;;5020500;28;20060;-95
2022/09/27 10:55:52;;;;;;;5.00;4.60;;;;;;;;;;5015002;28;20057;-96
2022/09/27 10:58:20;;;;;;;5.18;4.78;;;;;;;;;;5003220;28;20081;-96
2022/09/27 11:00:54;;;;;;;6.13;5.57;;;;;;;;;;5015747;28;20054;-96
2022/09/27 11:03:24;;;;;;;4.95;3.97;;;;;;;;;;5002970;28;20049;-95
2022/09/27 11:05:53;;;;;;;4.57;4.18;;;;;;;;;;5020517;28;20071;-95
2022/09/27 11:08:26;;;;;;;4.93;4.53;;;;;;;;;;5021241;28;20061;-96
2022/09/27 11:11:06;;;;;;;4.25;3.85;;;;;;;;;;5019155;28;20046;-96
2022/09/27 11:13:34;;;;;;;5.47;5.00;;;;;;;;;;5017974;28;20057;-96
2022/09/27 11:16:15;;;;;;;5.78;5.22;;;;;;;;;;5009791;28;20161;-95
2022/09/27 11:18:46;;;;;;;6.60;5.47;;;;;;;;;;5007709;28;20057;-96
2022/09/27 11:21:19;;;;;;;5.30;4.85;;;;;;;;;;5017558;28;20064;-96
2022/09/27 11:24:00;;;;;;;5.07;4.50;;;;;;;;;;5019998;28;20041;-96
2022/09/27 11:26:33;;;;;;;4.72;4.25;;;;;;;;;;5020208;28;20050;-95
2022/09/27 11:29:06;;;;;;;4.80;4.13;;;;;;;;;;5025250;28;20138;-96
2022/09/27 11:31:41;;;;;;;4.25;3.78;;;;;;;;;;5023659;28;20117;-96
2022/09/27 11:34:29;;;;;;;5.47;4.97;;;;;;;;;;5022853;28;20080;-95
2022/09/27 11:37:04;;;;;;;4.63;4.15;;;;;;;;;;5021705;28;20049;-96
2022/09/27 11:39:33;;;;;;;6.28;4.57;;;;;;;;;;5021379;28;20046;-96
2022/09/27 11:42:08;;;;;;;5.43;5.03;;;;;;;;;;5023637;28;20045;-96
2022/09/27 11:44:51;;;;;;;5.25;4.85;;;;;;;;;;5020492;28;20073;-96
2022/09/27 11:47:22;;;;;;;7.75;4.13;;;;;;;;;;5021571;28;20046;-96
2022/09/27 11:49:59;;;;;;;6.35;4.25;;;;;;;;;;5021877;28;20052;-96
2022/09/27 11:52:37;;;;;;;5.32;4.72;;;;;;;;;;5021980;28;20065;-96
2022/09/27 11:55:19;;;;;;;5.28;4.57;;;;;;;;;;5020399;28;20519;-96
2022/09/27 11:57:48;;;;;;;5.00;4.60;;;;;;;;;;5020301;28;20100;-96
2022/09/27 12:00:19;;;;;;;4.10;3.67;;;;;;;;;;5020331;28;20065;-95
2022/09/27 12:03:04;;;;;;;5.97;5.47;;;;;;;;;;5015473;28;20050;-96
2022/09/27 12:05:33;;;;;;;4.97;4.47;;;;;;;;;;5016383;28;20041;-95
2022/09/27 12:08:12;;;;;;;5.22;3.47;;;;;;;;;;5018859;28;20046;-96
2022/09/27 12:10:39;;;;;;;4.97;4.40;;;;;;;;;;5001567;28;20719;-96
2022/09/27 12:13:07;;;;;;;5.70;5.10;;;;;;;;;;5000136;28;20052;-95
2022/09/27 12:15:36;;;;;;;6.45;4.32;;;;;;;;;;5019344;28;20262;-96
2022/09/27 12:18:07;;;;;;;6.28;5.75;;;;;;;;;;5020555;28;20046;-95
2022/09/27 12:20:36;;;;;;;5.10;4.70;;;;;;;;;;5007844;28;20144;-96
2022/09/27 12:23:04;;;;;;;6.55;4.60;;;;;;;;;;5004214;28;20108;-96
2022/09/27 12:25:35;;;;;;;4.28;3.97;;;;;;;;;;5003096;28;20069;-96
2022/09/27 12:28:05;;;;;;;5.20;4.10;;;;;;;;;;5003221;28;20117;-96
2022/09/27 12:30:34;;;;;;;5.03;4.68;;;;;;;;;;5017250;28;20058;-96
2022/09/27 12:33:04;;;;;;;4.68;4.28;;;;;;;;;;5022756;28;20569;-96
2022/09/27 12:35:33;;;;;;;4.55;4.25;;;;;;;;;;5022494;28;20042;-96
2022/09/27 12:38:01;;;;;;;4.25;3.40;;;;;;;;;;5023668;28;20073;-96
2022/09/27 12:40:29;;;;;;;5.10;4.28;;;;;;;;;;5023737;28;20050;-95
2022/09/27 12:43:00;;;;;;;5.55;5.13;;;;;;;;;;5010011;28;20089;-96
2022/09/27 12:45:31;;;;;;;6.63;6.03;;;;;;;;;;5016327;28;20092;-96
2022/09/27 12:48:03;;;;;;;6.03;5.60;;;;;;;;;;5016762;28;20049;-95
2022/09/27 12:50:32;;;;;;;6.65;6.13;;;;;;;;;;5006725;28;20046;-96
2022/09/27 12:53:04;;;;;;;5.18;4.68;;;;;;;;;;5002984;28;20050;-96
2022/09/27 12:55:48;;;;;;;5.10;4.78;;;;;;;;;;5003560;28;20070;-95
2022/09/27 12:58:40;;;;;;;6.78;5.75;;;;;;;;;;5000032;28;20554;-94
2022/09/27 13:01:14;;;;;;;6.32;5.90;;;;;;;;;;4995695;28;20088;-94
2022/09/27 13:03:50;;;;;;;7.03;6.43;;;;;;;;;;4999931;28;20123;-96
2022/09/27 13:06:25;;;;;;;4.65;4.22;;;;;;;;;;5016868;28;20069;-96
2022/09/27 13:09:16;;;;;;;6.55;5.80;;;;;;;;;;5008860;28;20088;-96
2022/09/27 13:11:46;;;;;;;5.13;4.72;;;;;;;;;;4981484;28;20046;-96
2022/09/27 13:14:16;;;;;;;4.68;4.28;;;;;;;;;;5000627;28;20061;-96
2022/09/27 13:16:43;;;;;;;6.22;5.72;;;;;;;;;;5018555;28;20049;-96
2022/09/27 13:19:36;;;;;;;7.15;6.57;;;;;;;;;;5014670;28;20053;-96
2022/09/27 13:22:03;;;;;;;5.70;5.25;;;;;;;;;;5004298;28;20188;-95
2022/09/27 13:24:43;;;;;;;6.45;5.95;;;;;;;;;;5001602;28;20149;-96
2022/09/27 13:27:25;;;;;;;5.30;4.90;;;;;;;;;;5012017;28;20417;-95
2022/09/27 13:30:15;;;;;;;6.35;5.75;;;;;;;;;;5009144;28;20046;-96
2022/09/27 13:33:02;;;;;;;5.00;4.60;;;;;;;;;;4997545;28;20895;-95
2022/09/27 13:35:30;;;;;;;5.18;4.68;;;;;;;;;;5009229;28;20046;-96
2022/09/27 13:37:58;;;;;;;6.45;6.00;;;;;;;;;;5014919;28;20046;-96
2022/09/27 13:40:29;;;;;;;4.10;3.70;;;;;;;;;;5017003;28;20056;-96
2022/09/27 13:43:26;;;;;;;4.07;3.75;;;;;;;;;;5014512;28;20046;-96
2022/09/27 13:45:54;;;;;;;7.13;6.43;;;;;;;;;;4955297;29;20570;-96
2022/09/27 13:48:24;;;;;;;5.22;4.80;;;;;;;;;;4994802;28;20152;-96
2022/09/27 13:50:56;;;;;;;8.98;7.50;;;;;;;;;;5008392;28;20045;-95
2022/09/27 13:53:28;;;;;;;5.97;4.88;;;;;;;;;;5015728;28;20073;-93
2022/09/27 13:55:55;;;;;;;5.78;5.28;;;;;;;;;;5015448;28;20073;-94
2022/09/27 13:58:42;;;;;;;6.80;6.22;;;;;;;;;;5003529;28;20050;-95
2022/09/27 14:01:15;;;;;;;6.30;5.72;;;;;;;;;;5004183;28;20038;-95
2022/09/27 14:03:55;;;;;;;7.03;6.43;;;;;;;;;;5000847;28;20050;-95
2022/09/27 14:06:26;;;;;;;6.85;6.15;;;;;;;;;;5003069;28;20213;-94
2022/09/27 14:08:55;;;;;;;6.95;6.35;;;;;;;;;;5013402;28;20064;-95
2022/09/27 14:11:23;;;;;;;7.03;6.43;;;;;;;;;;5012567;28;20131;-94
2022/09/27 14:13:50;;;;;;;8.40;7.63;;;;;;;;;;5011615;28;20060;-94
2022/09/27 14:16:18;;;;;;;6.68;6.25;;;;;;;;;;4997606;28;20043;-94
2022/09/27 14:18:49;;;;;;;7.10;6.60;;;;;;;;;;4993497;28;20121;-94
2022/09/27 14:21:19;;;;;;;7.25;6.75;;;;;;;;;;5003690;28;20073;-96
2022/09/27 14:23:47;;;;;;;7.90;7.22;;;;;;;;;;4993901;28;20046;-94
2022/09/27 14:26:22;;;;;;;6.95;6.35;;;;;;;;;;5001933;28;20050;-94
2022/09/27 14:28:48;;;;;;;6.53;6.00;;;;;;;;;;5014409;28;20571;-95
2022/09/27 14:31:16;;;;;;;6.45;6.03;;;;;;;;;;5005669;28;20050;-95
2022/09/27 14:33:43;;;;;;;5.93;5.35;;;;;;;;;;5013066;28;20496;-95
2022/09/27 14:39:11;;;;;;;6.15;5.65;;;;;;;;;;5012545;28;20114;-94
2022/09/27 14:41:39;;;;;;;5.80;5.40;;;;;;;;;;4997388;28;20138;-95
2022/09/27 14:44:12;;;;;;;6.88;5.70;;;;;;;;;;4998984;28;20042;-94
2022/09/27 14:46:38;;;;;;;7.93;7.40;;;;;;;;;;5014189;28;20076;-94
2022/09/27 14:49:12;;;;;;;5.03;4.63;;;;;;;;;;5009117;28;20046;-94
2022/09/27 14:51:39;;;;;;;4.20;3.80;;;;;;;;;;5020230;28;20559;-94
2022/09/27 14:54:19;;;;;;;4.22;3.83;;;;;;;;;;5023761;28;20045;-92
2022/09/27 14:56:46;;;;;;;4.18;3.83;;;;;;;;;;5008562;28;20106;-92
2022/09/27 14:59:15;;;;;;;4.95;4.32;;;;;;;;;;5006266;28;20093;-91
2022/09/27 15:01:49;;;;;;;4.80;4.50;;;;;;;;;;5008938;28;20049;-91
2022/09/27 15:04:15;;;;;;;4.75;4.32;;;;;;;;;;5025882;28;20081;-94